Terminal Aerodrome Forecast
Issued by NWS Rapid City, SD

Current Version | Previous Version | Text Only | Print | Product List | Glossary On
Versions: 1 2 3 4 5 6 7 8 9 10 11 12 13 14 15 16 17 18
000
FTUS43 KUNR 291728
TAFRAP
TAF
KRAP 291728Z 2918/3018 35020G30KT P6SM OVC012
     FM292100 01009KT P6SM BKN040
     FM300600 15005KT P6SM SCT015=

USA.gov is the U.S. government's official web portal to all federal, state and local government web resources and services.